Main page
METAR-TAF:

METAR-TAF

Airports :

Arad International Airport

Arad, Romania

latitude: 46-12N, longitude: 021-24E, elevation: 117 m

Current weather observation

The report was made 33 minutes ago, at 21:00 UTC
Wind 2 kt from variable directions
Temperature -4°C
Humidity 100%
Pressure 1028 hPa
Visibility: 0500 m
freezing fog

METAR: LRAR 172100Z VRB02KT 0500 R09/0700 R27/0700N FZFG VV001 M04/M04 Q1028 R09/19//95

Time: 23:33 (21:33 UTC)

Forecast

The report was made 1 hour and 33 minutes ago, at 20:00 UTC
Forecast valid from 17 at 21 UTC to 18 at 06 UTC
Wind 4 kt from variable directions
Visibility: 0350 m
at a height of 100 ft
freezing fog
Temporary
from 17 at 21 UTC to 17 at 24 UTC
Visibility: 0800 m
Broken clouds at a height of 200 ft

TAF: LRAR 172000Z 1721/1806 VRB04KT 0350 FZFG VV001 TEMPO 1721/1724 0800 BKN002

Weather observations and forecasts of more than 4000 airports (METAR and TAF reports).

The available stations are represented by yellow and red dots on the map.

Hover mouse over dot to see the name of the station.

Then click to see weather observations and forecasts.

To change the map : click on the green buttons with a black cross to zoom in, on the green button with a dash to zoom out, or on the green arrows for adjacent maps.


METAR-TAF: